createdAt,value
2018-02-23T00:04:45.614Z,100341
2018-02-23T00:09:49.625Z,100334
2018-02-23T00:14:57.504Z,100340
2018-02-23T00:20:01.477Z,100344
2018-02-23T00:25:06.237Z,100340
2018-02-23T00:30:09.413Z,100342
2018-02-23T00:35:14.668Z,100341
2018-02-23T00:40:18.873Z,100342
2018-02-23T00:45:27.518Z,100345
2018-02-23T00:50:30.908Z,100347
2018-02-23T00:55:35.865Z,100351
2018-02-23T01:00:39.456Z,100349
2018-02-23T01:05:44.085Z,100353
2018-02-23T01:10:48.822Z,100358
2018-02-23T01:15:53.933Z,100368
2018-02-23T01:20:57.401Z,100357
2018-02-23T01:26:02.678Z,100362
2018-02-23T01:31:06.677Z,100362
2018-02-23T01:36:11.691Z,100364
2018-02-23T01:41:15.712Z,100357
2018-02-23T01:46:19.129Z,100349
2018-02-23T01:51:23.666Z,100348
2018-02-23T01:56:28.269Z,100346
2018-02-23T02:01:32.277Z,100354
2018-02-23T02:06:37.052Z,100359
2018-02-23T02:11:40.822Z,100361
2018-02-23T02:16:48.549Z,100359
2018-02-23T02:21:52.165Z,100363
2018-02-23T02:26:57.393Z,100363
2018-02-23T02:32:00.629Z,100362
2018-02-23T02:37:07.473Z,100363
2018-02-23T02:42:10.873Z,100364
2018-02-23T02:47:17.377Z,100368
2018-02-23T02:52:20.694Z,100362
2018-02-23T02:57:28.511Z,100360
2018-02-23T03:02:33.128Z,100359
2018-02-23T03:07:40.606Z,100362
2018-02-23T03:12:44.526Z,100366
2018-02-23T03:17:48.954Z,100363
2018-02-23T03:22:52.246Z,100371
2018-02-23T03:27:56.961Z,100361
2018-02-23T03:33:01.136Z,100360
2018-02-23T03:38:07.716Z,100368
2018-02-23T03:43:11.021Z,100368
2018-02-23T03:48:15.270Z,100369
2018-02-23T03:53:19.029Z,100365
2018-02-23T03:58:22.465Z,100374
2018-02-23T04:03:29.648Z,100360
2018-02-23T04:08:33.098Z,100368
2018-02-23T04:13:38.228Z,100372
2018-02-23T04:18:41.649Z,100382
2018-02-23T04:23:46.517Z,100377
2018-02-23T04:28:50.071Z,100375
2018-02-23T04:33:57.224Z,100372
2018-02-23T04:39:01.329Z,100377
2018-02-23T04:44:08.478Z,100385
2018-02-23T04:49:12.050Z,100385
2018-02-23T04:54:16.328Z,100385
2018-02-23T04:59:20.509Z,100392
2018-02-23T05:04:25.153Z,100383
2018-02-23T05:09:29.633Z,100396
2018-02-23T05:14:33.677Z,100391
2018-02-23T05:19:38.145Z,100394
2018-02-23T05:24:41.850Z,100406
2018-02-23T05:29:45.508Z,100409
2018-02-23T05:34:49.044Z,100410
2018-02-23T05:39:53.329Z,100422
2018-02-23T05:45:00.549Z,100440
2018-02-23T05:50:04.817Z,100440
2018-02-23T05:55:09.618Z,100446
2018-02-23T06:00:13.401Z,100450
2018-02-23T06:05:19.978Z,100460
2018-02-23T06:10:23.527Z,100463
2018-02-23T06:15:26.866Z,100457
2018-02-23T06:20:30.534Z,100472
2018-02-23T06:25:35.546Z,100481
2018-02-23T06:30:39.723Z,100488
2018-02-23T06:35:43.489Z,100485
2018-02-23T06:40:47.537Z,100498
2018-02-23T06:45:56.950Z,100493
2018-02-23T06:51:00.842Z,100506
2018-02-23T06:56:04.557Z,100512
2018-02-23T07:01:09.006Z,100523
2018-02-23T07:06:16.093Z,100527
2018-02-23T07:11:19.385Z,100523
2018-02-23T07:16:26.106Z,100537
2018-02-23T07:21:29.578Z,100539
2018-02-23T07:26:34.873Z,100547
2018-02-23T07:31:38.303Z,100546
2018-02-23T07:36:45.722Z,100538
2018-02-23T07:41:49.048Z,100536
2018-02-23T07:46:53.665Z,100525
2018-02-23T07:51:57.479Z,100524
2018-02-23T07:57:02.011Z,100524
2018-02-23T08:02:05.679Z,100527
2018-02-23T08:07:10.550Z,100509
2018-02-23T08:12:14.724Z,100519
2018-02-23T08:17:20.098Z,100513
2018-02-23T08:22:24.641Z,100501
2018-02-23T08:27:34.717Z,100510
2018-02-23T08:32:38.313Z,100512
2018-02-23T08:37:43.305Z,100501
2018-02-23T08:42:51.554Z,100510
2018-02-23T08:47:55.773Z,100518
2018-02-23T08:53:03.029Z,100514
2018-02-23T08:58:06.404Z,100525
2018-02-23T09:03:10.325Z,100514
2018-02-23T09:08:13.933Z,100509
2018-02-23T09:13:21.169Z,100527
2018-02-23T09:18:25.414Z,100520
2018-02-23T09:23:30.685Z,100509
2018-02-23T09:28:34.491Z,100527
2018-02-23T10:36:43.519Z,100507
2018-02-23T10:41:47.733Z,100500
2018-02-23T10:46:54.251Z,100490
2018-02-23T10:51:58.759Z,100495
2018-02-23T10:57:04.411Z,100494
2018-02-23T11:02:10.764Z,100488
2018-02-23T11:07:16.346Z,100493
2018-02-23T11:12:22.519Z,100490
2018-02-23T11:17:27.017Z,100480
2018-02-23T11:22:35.414Z,100472
2018-02-23T11:27:42.064Z,100480
2018-02-23T11:32:49.455Z,100480
2018-02-23T11:37:54.898Z,100481
2018-02-23T11:43:01.708Z,100482
2018-02-23T11:48:08.237Z,100486
2018-02-23T11:53:13.900Z,100479
2018-02-23T11:58:18.892Z,100480
2018-02-23T12:03:51.400Z,100478
2018-02-23T12:08:55.579Z,100482
2018-02-23T12:14:04.583Z,100479
2018-02-23T12:19:08.887Z,100472
2018-02-23T12:24:20.042Z,100483
2018-02-23T12:29:25.591Z,100474
2018-02-23T12:34:31.747Z,100475
2018-02-23T12:39:38.649Z,100471
2018-02-23T12:44:45.968Z,100438
2018-02-23T12:49:51.264Z,100476
2018-02-23T12:55:00.067Z,100444
2018-02-23T13:00:04.695Z,100423
2018-02-23T13:05:12.572Z,100423
2018-02-23T13:10:17.067Z,100408
2018-02-23T13:15:24.912Z,100403
2018-02-23T13:20:30.673Z,100394
2018-02-23T13:25:35.929Z,100399
2018-02-23T13:30:41.360Z,100392
2018-02-23T13:35:46.456Z,100385
2018-02-23T13:40:56.773Z,100384
2018-02-23T13:46:07.196Z,100379
2018-02-23T13:51:11.702Z,100378
2018-02-23T13:56:17.323Z,100369
2018-02-23T14:01:21.147Z,100372
2018-02-23T14:06:40.839Z,100373
2018-02-23T14:11:50.140Z,100369
2018-02-23T14:17:00.429Z,100384
2018-02-23T14:22:07.901Z,100384
2018-02-23T14:27:11.201Z,100379
2018-02-23T14:32:16.063Z,100371
2018-02-23T14:37:20.213Z,100370
2018-02-23T14:42:24.910Z,100371
2018-02-23T14:47:28.486Z,100370
2018-02-23T14:52:33.266Z,100380
2018-02-23T14:57:36.951Z,100372
2018-02-23T15:02:40.762Z,100370
2018-02-23T15:07:44.152Z,100378
2018-02-23T15:12:48.071Z,100373
2018-02-23T15:17:52.849Z,100374
2018-02-23T15:23:00.517Z,100375
2018-02-23T15:28:03.829Z,100380
2018-02-23T15:33:08.193Z,100376
2018-02-23T15:38:12.352Z,100374
2018-02-23T15:43:19.434Z,100373
2018-02-23T15:53:52.898Z,100379
2018-02-23T15:58:56.318Z,100388
2018-02-23T16:04:02.886Z,100386
2018-02-23T16:09:06.277Z,100386
2018-02-23T16:14:09.798Z,100402
2018-02-23T16:19:14.206Z,100409
2018-02-23T16:24:17.878Z,100415
2018-02-23T16:29:22.795Z,100421
2018-02-23T16:34:26.611Z,100431
2018-02-23T16:39:30.855Z,100434
2018-02-23T16:44:37.986Z,100443
2018-02-23T16:49:42.024Z,100433
2018-02-23T16:54:45.777Z,100440
2018-02-23T16:59:49.091Z,100447
2018-02-23T17:04:52.774Z,100447
2018-02-23T17:09:56.165Z,100447
2018-02-23T17:15:03.007Z,100438
2018-02-23T17:20:07.150Z,100444
2018-02-23T17:25:14.843Z,100448
2018-02-23T17:30:18.371Z,100443
2018-02-23T17:35:21.900Z,100448
2018-02-23T17:40:27.218Z,100445
2018-02-23T17:45:31.095Z,100449
2018-02-23T17:50:35.238Z,100453
2018-02-23T17:55:38.785Z,100449
2018-02-23T18:00:43.034Z,100455
2018-02-23T18:05:49.968Z,100457
2018-02-23T18:10:54.255Z,100459
2018-02-23T18:16:02.251Z,100451
2018-02-23T18:21:05.884Z,100447
2018-02-23T18:26:10.872Z,100440
2018-02-23T18:31:21.109Z,100451
2018-02-23T18:36:25.299Z,100459
2018-02-23T18:41:29.458Z,100457
2018-02-23T18:46:32.752Z,100446
2018-02-23T18:51:39.649Z,100456
2018-02-23T18:56:44.093Z,100447
2018-02-23T19:01:47.671Z,100435
2018-02-23T19:06:52.734Z,100441
2018-02-23T19:11:57.708Z,100437
2018-02-23T19:17:02.589Z,100434
2018-02-23T19:22:08.998Z,100431
2018-02-23T19:27:13.755Z,100432
2018-02-23T19:32:17.623Z,100428
2018-02-23T19:37:21.548Z,100429
2018-02-23T19:42:26.202Z,100423
2018-02-23T19:47:30.443Z,100427
2018-02-23T19:52:33.934Z,100427
2018-02-23T19:57:37.308Z,100422
2018-02-23T20:02:40.845Z,100419
2018-02-23T20:07:44.682Z,100420
2018-02-23T20:12:48.455Z,100403
2018-02-23T20:17:52.784Z,100400
2018-02-23T20:22:57.639Z,100397
2018-02-23T20:28:01.062Z,100385
2018-02-23T20:33:04.841Z,100375
2018-02-23T20:38:08.838Z,100364
2018-02-23T20:43:13.121Z,100361
2018-02-23T20:48:17.282Z,100360
2018-02-23T20:53:24.431Z,100360
2018-02-23T20:58:28.314Z,100350
2018-02-23T21:03:33.485Z,100334
2018-02-23T21:08:37.551Z,100336
2018-02-23T21:13:44.737Z,100333
2018-02-23T21:18:48.176Z,100326
2018-02-23T21:23:55.019Z,100320
2018-02-23T21:28:59.264Z,100313
2018-02-23T21:34:05.962Z,100313
2018-02-23T21:39:09.436Z,100307
2018-02-23T21:44:14.365Z,100301
2018-02-23T21:49:18.514Z,100310
2018-02-23T21:54:25.658Z,100305
2018-02-23T21:59:29.754Z,100302
2018-02-23T22:04:33.599Z,100302
2018-02-23T22:09:37.258Z,100292
2018-02-23T22:14:43.734Z,100286
2018-02-23T22:19:47.266Z,100273
2018-02-23T22:24:50.952Z,100273
2018-02-23T22:29:54.813Z,100272
2018-02-23T22:35:01.750Z,100271
2018-02-23T22:40:05.166Z,100263
2018-02-23T22:45:09.998Z,100256
2018-02-23T22:50:13.486Z,100255
2018-02-23T22:55:16.860Z,100251
2018-02-23T23:00:20.415Z,100238
2018-02-23T23:05:24.734Z,100241
2018-02-23T23:10:29.705Z,100243
2018-02-23T23:15:33.066Z,100243
2018-02-23T23:20:37.570Z,100245
2018-02-23T23:25:40.966Z,100223
2018-02-23T23:30:46.398Z,100229
2018-02-23T23:35:50.561Z,100233
2018-02-23T23:40:54.904Z,100226
2018-02-23T23:45:58.455Z,100228
2018-02-23T23:51:03.890Z,100233
2018-02-23T23:56:08.157Z,100229
